Time;durP1;ratioP1;P1;durP2;ratioP2;P2;SDS_P1;SDS_P2;PMS_P1;PMS_P2;Temp;Humidity;BMP_temperature;BMP_pressure;BME280_temperature;BME280_humidity;BME280_pressure;Samples;Min_cycle;Max_cycle;Signal;HPM_P1;HPM_P2
2023/04/25 00:09:53;;;;;;;1.13;0.80;;;3.70;99.90;;;;;;25966762;22;20018;-61
2023/04/25 00:19:55;;;;;;;1.27;0.50;;;3.80;99.90;;;;;;25966752;22;20003;-62
2023/04/25 00:29:57;;;;;;;0.82;0.30;;;4.10;99.90;;;;;;25964207;22;20019;-61
2023/04/25 00:39:58;;;;;;;0.28;0.20;;;4.30;99.90;;;;;;25965508;22;20066;-62
2023/04/25 00:50:00;;;;;;;0.43;0.20;;;4.30;99.90;;;;;;25964396;22;20007;-62
2023/04/25 01:00:06;;;;;;;0.93;0.20;;;4.10;99.90;;;;;;25964064;22;20008;-62
2023/04/25 01:10:08;;;;;;;0.30;0.10;;;4.10;99.90;;;;;;26007226;22;20401;-62
2023/04/25 01:20:11;;;;;;;0.10;0.10;;;4.10;99.90;;;;;;25965063;22;20004;-61
2023/04/25 01:30:13;;;;;;;0.28;0.13;;;4.10;99.90;;;;;;25963246;22;20069;-62
2023/04/25 01:40:18;;;;;;;0.40;0.30;;;4.40;99.90;;;;;;25962630;22;20008;-63
2023/04/25 01:50:20;;;;;;;0.13;0.10;;;5.10;99.90;;;;;;25963923;22;20504;-63
2023/04/25 02:00:22;;;;;;;0.40;0.20;;;5.30;99.90;;;;;;25962218;22;20026;-63
2023/04/25 02:10:24;;;;;;;0.88;0.10;;;5.30;99.90;;;;;;25962127;22;20371;-63
2023/04/25 02:20:47;;;;;;;1.20;0.10;;;5.20;99.90;;;;;;25942557;22;20007;-63
2023/04/25 02:30:48;;;;;;;1.13;0.20;;;5.40;99.90;;;;;;25965862;22;20012;-63
2023/04/25 02:40:51;;;;;;;0.20;0.10;;;5.80;99.90;;;;;;25970358;22;20008;-63
2023/04/25 02:50:53;;;;;;;0.10;0.10;;;6.20;99.90;;;;;;25968588;22;20012;-64
2023/04/25 03:00:55;;;;;;;1.10;0.22;;;6.20;99.90;;;;;;25968446;22;20011;-63
2023/04/25 03:10:57;;;;;;;2.20;0.75;;;5.60;99.90;;;;;;25970744;22;20073;-62
2023/04/25 03:21:00;;;;;;;3.67;1.15;;;4.70;99.90;;;;;;25967624;22;20003;-63
2023/04/25 03:31:02;;;;;;;3.25;1.42;;;4.30;99.90;;;;;;25966908;22;20054;-62
2023/04/25 03:41:05;;;;;;;5.05;0.70;;;4.20;99.90;;;;;;25966712;22;20011;-62
2023/04/25 03:51:17;;;;;;;0.90;0.50;;;4.10;99.90;;;;;;26008679;22;20008;-61
2023/04/25 04:01:20;;;;;;;1.13;0.60;;;3.90;99.90;;;;;;25965784;22;20029;-61
2023/04/25 04:11:22;;;;;;;1.45;0.70;;;3.70;99.90;;;;;;25965157;22;20027;-61
2023/04/25 04:21:24;;;;;;;0.95;0.73;;;3.70;99.90;;;;;;25939595;22;20442;-61
2023/04/25 04:31:26;;;;;;;1.23;0.80;;;3.70;99.90;;;;;;25965954;22;20015;-63
2023/04/25 04:41:28;;;;;;;2.33;1.15;;;3.10;99.90;;;;;;25964702;22;20018;-61
2023/04/25 04:51:44;;;;;;;3.30;0.95;;;2.40;99.90;;;;;;26006097;22;20373;-61
2023/04/25 05:02:06;;;;;;;1.95;0.50;;;2.10;99.90;;;;;;25943952;22;20532;-62
2023/04/25 05:12:20;;;;;;;2.17;0.20;;;2.40;99.90;;;;;;26005380;22;20004;-62
2023/04/25 05:22:24;;;;;;;0.40;0.20;;;2.40;99.90;;;;;;25964378;22;20079;-62
2023/04/25 05:32:46;;;;;;;0.63;0.40;;;2.10;99.90;;;;;;25963228;22;20023;-61
2023/04/25 05:42:49;;;;;;;0.52;0.25;;;2.00;99.90;;;;;;25938236;22;20004;-62
2023/04/25 05:53:02;;;;;;;1.17;0.60;;;1.90;99.90;;;;;;26007316;22;20008;-62
2023/04/25 06:03:09;;;;;;;1.98;0.63;;;2.30;99.90;;;;;;25965715;22;20011;-64
2023/04/25 06:13:11;;;;;;;5.20;1.00;;;2.50;99.90;;;;;;25969973;22;20004;-63
2023/04/25 06:23:13;;;;;;;2.95;0.85;;;2.50;99.90;;;;;;25972900;22;20003;-63
2023/04/25 06:33:24;;;;;;;1.37;0.60;;;2.60;99.90;;;;;;25988170;22;20008;-63
2023/04/25 06:43:27;;;;;;;1.13;0.70;;;2.60;99.90;;;;;;25969696;22;20000;-62
2023/04/25 06:53:49;;;;;;;2.65;1.02;;;2.70;99.90;;;;;;26011934;22;20003;-62
2023/04/25 07:04:01;;;;;;;1.67;1.00;;;2.80;99.90;;;;;;26011492;22;20008;-61
2023/04/25 07:14:05;;;;;;;1.58;0.75;;;3.00;99.90;;;;;;25968454;22;20007;-61
2023/04/25 07:24:07;;;;;;;1.17;0.30;;;3.50;99.90;;;;;;25969932;22;20007;-62
2023/04/25 07:34:12;;;;;;;1.38;0.80;;;4.40;99.90;;;;;;25982117;22;20350;-62
2023/04/25 07:44:14;;;;;;;0.70;0.43;;;4.90;99.90;;;;;;25968132;22;20421;-62
2023/04/25 07:54:17;;;;;;;0.20;0.10;;;5.80;99.90;;;;;;25967416;22;20007;-61
2023/04/25 08:04:25;;;;;;;0.98;0.30;;;7.60;99.90;;;;;;26009314;22;20073;-61
2023/04/25 08:14:39;;;;;;;0.65;0.25;;;8.80;99.90;;;;;;26009067;22;20003;-61
2023/04/25 08:24:42;;;;;;;1.65;0.13;;;9.10;99.90;;;;;;26008282;22;20049;-62
2023/04/25 08:34:47;;;;;;;0.43;0.20;;;10.10;99.90;;;;;;25978307;22;20019;-62
2023/04/25 08:44:50;;;;;;;0.63;0.38;;;10.80;99.90;;;;;;25965427;22;20008;-63
2023/04/25 08:54:54;;;;;;;0.60;0.50;;;11.60;99.90;;;;;;25966002;22;20008;-64
2023/04/25 09:04:57;;;;;;;1.10;0.52;;;11.90;99.90;;;;;;25964930;22;20469;-63
2023/04/25 09:15:12;;;;;;;0.30;0.30;;;12.60;99.90;;;;;;25964282;22;20007;-63
2023/04/25 09:25:25;;;;;;;0.50;0.50;;;12.20;99.90;;;;;;25965604;22;20022;-63
2023/04/25 09:35:27;;;;;;;0.73;0.63;;;12.20;99.90;;;;;;25964438;22;20012;-63
2023/04/25 09:45:31;;;;;;;1.92;0.63;;;12.00;99.90;;;;;;25973812;22;20007;-62
2023/04/25 09:55:36;;;;;;;0.70;0.70;;;12.30;99.90;;;;;;25946741;22;20014;-53
2023/04/25 10:05:38;;;;;;;1.10;0.80;;;12.00;99.90;;;;;;25971965;22;20007;-50
2023/04/25 10:15:41;;;;;;;1.77;1.20;;;10.40;99.90;;;;;;25971094;22;20081;-52
2023/04/25 10:25:43;;;;;;;2.60;1.40;;;9.10;99.90;;;;;;25971819;22;20053;-62
2023/04/25 10:35:45;;;;;;;1.35;1.23;;;8.60;99.90;;;;;;25971247;22;20019;-52
2023/04/25 10:45:53;;;;;;;1.90;1.27;;;9.40;99.90;;;;;;25969701;22;20006;-62
2023/04/25 10:55:55;;;;;;;2.63;1.80;;;10.50;99.90;;;;;;26012782;22;20003;-49
2023/04/25 11:05:56;;;;;;;2.05;1.85;;;9.60;99.90;;;;;;25970907;22;20443;-61
2023/04/25 11:15:58;;;;;;;2.90;2.00;;;8.40;99.90;;;;;;25970338;22;20008;-59
2023/04/25 11:26:01;;;;;;;2.65;1.70;;;7.60;99.90;;;;;;25970129;22;20007;-59
2023/04/25 11:36:03;;;;;;;3.67;2.00;;;7.10;99.90;;;;;;25969517;22;20015;-59
2023/04/25 11:46:07;;;;;;;1.77;1.20;;;6.50;99.90;;;;;;25969128;22;20004;-60
2023/04/25 11:56:13;;;;;;;2.97;1.60;;;6.10;99.90;;;;;;25966842;22;20069;-60
2023/04/25 12:06:17;;;;;;;1.67;1.00;;;5.90;99.90;;;;;;26005931;22;20470;-50
2023/04/25 12:16:18;;;;;;;0.88;0.55;;;5.70;99.90;;;;;;25967559;22;20422;-60
2023/04/25 12:26:20;;;;;;;1.27;0.55;;;5.60;99.90;;;;;;25964666;22;20022;-60
2023/04/25 12:36:22;;;;;;;1.05;0.30;;;5.40;99.90;;;;;;25965626;22;20331;-61
2023/04/25 12:46:24;;;;;;;1.50;0.28;;;5.10;99.90;;;;;;25964953;22;20003;-61
2023/04/25 12:56:30;;;;;;;0.65;0.20;;;5.10;99.90;;;;;;25966234;22;20018;-61
2023/04/25 13:06:32;;;;;;;0.77;0.20;;;6.00;99.90;;;;;;26005808;22;20004;-63
2023/04/25 13:16:33;;;;;;;0.55;0.20;;;8.50;99.90;;;;;;25964255;22;20011;-62
2023/04/25 13:26:35;;;;;;;0.38;0.20;;;9.20;99.90;;;;;;25963718;22;20003;-62
2023/04/25 13:36:37;;;;;;;0.70;0.15;;;7.50;99.90;;;;;;25962917;22;20023;-62
2023/04/25 13:46:40;;;;;;;1.30;0.40;;;5.90;99.90;;;;;;25963479;22;20065;-62
2023/04/25 13:56:42;;;;;;;0.55;0.30;;;5.40;99.90;;;;;;25963322;22;20004;-62
2023/04/25 14:06:44;;;;;;;0.45;0.30;;;5.90;99.90;;;;;;25962738;22;20008;-62
2023/04/25 14:16:48;;;;;;;0.98;0.50;;;7.10;99.90;;;;;;25962918;22;20008;-62
2023/04/25 14:26:49;;;;;;;1.05;0.65;;;8.10;99.90;;;;;;25967412;22;20300;-62
2023/04/25 14:36:52;;;;;;;1.85;0.50;;;8.50;99.90;;;;;;25970481;22;20007;-61
2023/04/25 14:46:53;;;;;;;0.73;0.30;;;9.00;99.90;;;;;;25970257;22;20007;-65
2023/04/25 14:56:55;;;;;;;0.30;0.22;;;9.60;99.90;;;;;;25969817;22;20054;-50
2023/04/25 15:06:57;;;;;;;0.20;0.20;;;9.90;99.90;;;;;;25969520;22;20004;-61
2023/04/25 15:16:58;;;;;;;0.40;0.30;;;9.20;99.90;;;;;;25966917;22;20003;-61
2023/04/25 15:27:00;;;;;;;0.73;0.30;;;8.80;99.90;;;;;;25968815;22;20023;-61
2023/04/25 15:37:01;;;;;;;0.25;0.20;;;8.30;99.90;;;;;;25968058;22;20519;-60
2023/04/25 15:47:03;;;;;;;0.95;0.32;;;7.60;99.90;;;;;;25967777;22;19999;-60
2023/04/25 15:57:04;;;;;;;0.50;0.35;;;7.00;99.90;;;;;;25967540;22;20447;-60
2023/04/25 16:07:08;;;;;;;1.00;0.50;;;7.00;99.90;;;;;;25966144;22;20039;-61
2023/04/25 16:17:10;;;;;;;0.60;0.40;;;6.80;99.90;;;;;;25966299;22;20493;-61
2023/04/25 16:27:12;;;;;;;1.55;0.60;;;6.60;99.90;;;;;;25966382;22;20004;-61
2023/04/25 16:37:14;;;;;;;1.00;0.63;;;6.30;99.90;;;;;;25962966;22;20011;-61
2023/04/25 16:47:16;;;;;;;0.90;0.50;;;6.20;99.90;;;;;;25965098;22;20054;-61
2023/04/25 16:57:18;;;;;;;1.17;0.70;;;6.30;99.90;;;;;;25964897;22;20030;-61
2023/04/25 17:07:23;;;;;;;3.17;0.60;;;6.30;99.90;;;;;;25964852;22;20057;-61
2023/04/25 17:17:25;;;;;;;0.75;0.50;;;6.40;99.90;;;;;;25962332;22;20019;-61
2023/04/25 17:27:27;;;;;;;1.10;0.70;;;6.00;99.90;;;;;;25964248;22;20291;-60
2023/04/25 17:37:29;;;;;;;0.45;0.40;;;5.70;99.90;;;;;;25964396;22;20061;-60
2023/04/25 17:47:31;;;;;;;0.70;0.50;;;5.10;99.90;;;;;;25963880;22;20003;-60
2023/04/25 17:57:33;;;;;;;2.13;0.60;;;4.60;99.90;;;;;;25965624;22;20003;-60
2023/04/25 18:07:35;;;;;;;1.25;0.35;;;4.10;99.90;;;;;;25971946;22;20057;-60
2023/04/25 18:17:40;;;;;;;0.90;0.40;;;3.60;99.90;;;;;;25971313;22;20068;-52
2023/04/25 18:27:42;;;;;;;0.93;0.47;;;3.20;99.90;;;;;;25969547;22;20008;-60
2023/04/25 18:37:44;;;;;;;1.77;0.57;;;2.90;99.90;;;;;;25969318;22;20451;-60
2023/04/25 18:47:45;;;;;;;1.08;0.40;;;2.80;99.90;;;;;;25970356;22;20011;-60
2023/04/25 18:57:47;;;;;;;0.50;0.40;;;2.50;99.90;;;;;;25969916;22;20117;-60
2023/04/25 19:07:49;;;;;;;1.40;0.70;;;2.30;99.90;;;;;;25968267;22;20045;-58
2023/04/25 19:17:51;;;;;;;0.75;0.50;;;2.30;99.90;;;;;;25968866;22;20022;-60
2023/04/25 19:27:53;;;;;;;3.45;0.30;;;2.60;99.90;;;;;;25967208;22;20057;-58
2023/04/25 19:37:55;;;;;;;0.73;0.38;;;2.50;99.90;;;;;;25967087;22;20007;-59
2023/04/25 19:47:57;;;;;;;0.60;0.40;;;2.30;99.90;;;;;;25966052;22;20011;-49
2023/04/25 19:57:59;;;;;;;2.55;0.50;;;2.30;99.90;;;;;;25968957;22;20030;-59
2023/04/25 20:08:00;;;;;;;0.65;0.43;;;2.20;99.90;;;;;;25968367;22;20003;-59
2023/04/25 20:18:03;;;;;;;0.93;0.30;;;2.30;99.90;;;;;;25967677;22;20004;-60
2023/04/25 20:28:05;;;;;;;0.68;0.30;;;2.30;99.90;;;;;;25966886;22;20053;-59
2023/04/25 20:38:07;;;;;;;0.35;0.17;;;2.30;99.90;;;;;;26007840;22;20011;-59
2023/04/25 20:48:09;;;;;;;0.52;0.20;;;2.20;99.90;;;;;;25966800;22;20007;-59
2023/04/25 20:58:11;;;;;;;0.22;0.20;;;2.00;99.90;;;;;;25965076;22;20014;-52
2023/04/25 21:08:13;;;;;;;0.45;0.22;;;1.90;99.90;;;;;;25964433;22;20009;-49
2023/04/25 21:18:15;;;;;;;2.03;0.30;;;1.90;99.90;;;;;;25966181;22;20011;-59
2023/04/25 21:28:16;;;;;;;0.45;0.20;;;1.80;99.90;;;;;;25965586;22;20004;-59
2023/04/25 21:38:18;;;;;;;0.20;0.17;;;1.80;99.90;;;;;;25965160;22;20016;-59
2023/04/25 21:48:20;;;;;;;0.20;0.10;;;1.80;99.90;;;;;;25965411;22;20003;-59
2023/04/25 21:58:21;;;;;;;1.10;0.50;;;1.80;99.90;;;;;;25965067;22;20004;-59
2023/04/25 22:08:23;;;;;;;1.08;0.20;;;1.80;99.90;;;;;;25963129;22;20058;-59
2023/04/25 22:18:24;;;;;;;0.22;0.15;;;2.10;99.90;;;;;;25962955;22;20003;-59
2023/04/25 22:28:26;;;;;;;0.20;0.20;;;2.80;99.90;;;;;;25964123;22;20011;-59
2023/04/25 22:38:29;;;;;;;0.30;0.20;;;3.10;99.90;;;;;;26006629;22;20069;-59
2023/04/25 22:48:30;;;;;;;1.48;0.40;;;3.40;99.90;;;;;;25969053;22;20011;-60
2023/04/25 22:58:32;;;;;;;0.50;0.28;;;3.30;99.90;;;;;;25971158;22;20057;-59
2023/04/25 23:08:34;;;;;;;0.75;0.13;;;3.20;99.90;;;;;;25971002;22;20474;-59
2023/04/25 23:18:38;;;;;;;0.40;0.20;;;3.30;99.90;;;;;;25970628;22;20004;-59
2023/04/25 23:28:40;;;;;;;0.88;0.20;;;3.40;99.90;;;;;;25969942;22;20023;-59
2023/04/25 23:38:41;;;;;;;0.10;0.10;;;3.30;99.90;;;;;;25969850;22;20015;-60
2023/04/25 23:48:43;;;;;;;0.20;0.10;;;3.30;99.90;;;;;;25967711;22;20004;-60
2023/04/25 23:58:45;;;;;;;0.30;0.10;;;3.10;99.90;;;;;;25968850;22;20331;-59
